createdAt,value
2018-08-06T00:00:29.804Z,10.60
2018-08-06T00:02:57.956Z,10.17
2018-08-06T00:05:26.143Z,10.73
2018-08-06T00:07:54.290Z,9.77
2018-08-06T00:10:23.432Z,9.70
2018-08-06T00:12:51.685Z,9.90
2018-08-06T00:15:19.980Z,10.47
2018-08-06T00:17:48.133Z,11.10
2018-08-06T00:20:16.613Z,10.13
2018-08-06T00:22:44.880Z,10.93
2018-08-06T00:25:14.659Z,10.53
2018-08-06T00:27:43.382Z,9.47
2018-08-06T00:30:13.123Z,9.10
2018-08-06T00:32:42.193Z,9.23
2018-08-06T00:35:11.005Z,9.27
2018-08-06T00:37:39.472Z,10.27
2018-08-06T00:40:11.733Z,9.90
2018-08-06T00:42:40.225Z,9.67
2018-08-06T00:45:11.248Z,9.73
2018-08-06T00:47:39.412Z,9.87
2018-08-06T00:50:08.133Z,10.37
2018-08-06T00:52:36.596Z,9.67
2018-08-06T00:55:05.465Z,10.53
2018-08-06T00:57:33.616Z,9.87
2018-08-06T01:00:01.761Z,10.00
2018-08-06T01:02:29.912Z,10.03
2018-08-06T01:04:57.836Z,10.10
2018-08-06T01:07:25.982Z,10.00
2018-08-06T01:09:54.144Z,9.60
2018-08-06T01:12:22.286Z,9.93
2018-08-06T01:14:50.441Z,10.00
2018-08-06T01:17:18.597Z,10.23
2018-08-06T01:19:46.752Z,10.80
2018-08-06T01:22:14.929Z,10.93
2018-08-06T01:24:43.124Z,9.87
2018-08-06T01:27:11.408Z,10.10
2018-08-06T01:29:39.734Z,10.50
2018-08-06T01:32:08.170Z,10.07
2018-08-06T01:34:36.324Z,10.30
2018-08-06T01:37:04.469Z,10.77
2018-08-06T01:39:32.379Z,10.07
2018-08-06T01:42:00.549Z,9.67
2018-08-06T01:44:28.701Z,10.00
2018-08-06T01:46:56.875Z,9.87
2018-08-06T01:49:25.036Z,9.93
2018-08-06T01:51:53.179Z,9.57
2018-08-06T01:54:21.361Z,10.50
2018-08-06T01:56:49.589Z,11.03
2018-08-06T01:59:17.740Z,11.30
2018-08-06T02:01:45.904Z,11.83
2018-08-06T02:04:14.045Z,12.03
2018-08-06T02:06:42.213Z,11.53
2018-08-06T02:09:10.380Z,11.60
2018-08-06T02:11:38.549Z,11.80
2018-08-06T02:14:06.701Z,12.07
2018-08-06T02:16:34.870Z,11.80
2018-08-06T02:19:03.020Z,11.07
2018-08-06T02:21:31.174Z,11.60
2018-08-06T02:23:59.332Z,11.57
2018-08-06T02:26:27.554Z,12.07
2018-08-06T02:28:55.472Z,11.73
2018-08-06T02:31:23.637Z,11.37
2018-08-06T02:33:51.798Z,10.93
2018-08-06T02:36:19.937Z,12.30
2018-08-06T02:38:48.128Z,11.70
2018-08-06T02:41:16.059Z,11.93
2018-08-06T02:43:44.214Z,10.67
2018-08-06T02:46:12.374Z,10.53
2018-08-06T02:48:40.537Z,11.00
2018-08-06T02:51:08.696Z,11.43
2018-08-06T02:53:36.608Z,11.03
2018-08-06T02:56:04.773Z,11.40
2018-08-06T02:58:32.928Z,10.77
2018-08-06T03:01:01.093Z,10.40
2018-08-06T03:03:29.016Z,11.20
2018-08-06T03:05:57.165Z,11.00
2018-08-06T03:08:25.313Z,10.47
2018-08-06T03:10:53.476Z,10.37
2018-08-06T03:13:21.388Z,9.43
2018-08-06T03:15:49.553Z,10.70
2018-08-06T03:18:17.705Z,10.60
2018-08-06T03:20:45.852Z,10.97
2018-08-06T03:23:14.021Z,10.07
2018-08-06T03:25:42.180Z,10.07
2018-08-06T03:28:10.336Z,10.13
2018-08-06T03:30:38.490Z,9.70
2018-08-06T03:33:06.977Z,10.07
2018-08-06T03:35:35.128Z,10.60
2018-08-06T03:38:03.048Z,10.83
2018-08-06T03:40:31.245Z,10.77
2018-08-06T03:42:59.471Z,11.63
2018-08-06T03:45:27.609Z,11.70
2018-08-06T03:47:55.760Z,11.23
2018-08-06T03:50:23.957Z,11.20
2018-08-06T03:52:51.958Z,11.57
2018-08-06T03:55:20.141Z,11.47
2018-08-06T03:57:48.278Z,10.30
2018-08-06T04:00:16.695Z,10.27
2018-08-06T04:02:45.049Z,10.10
2018-08-06T04:05:14.196Z,10.13
2018-08-06T04:07:42.449Z,10.27
2018-08-06T04:10:13.668Z,10.47
2018-08-06T04:12:41.761Z,11.33
2018-08-06T04:15:10.637Z,10.70
2018-08-06T04:17:39.039Z,10.50
2018-08-06T04:20:08.216Z,9.90
2018-08-06T04:22:36.128Z,10.10
2018-08-06T04:25:04.347Z,10.30
2018-08-06T04:27:32.284Z,10.60
2018-08-06T04:30:00.529Z,9.63
2018-08-06T04:32:28.693Z,10.30
2018-08-06T04:34:56.981Z,11.17
2018-08-06T04:37:25.225Z,10.47
2018-08-06T04:39:53.184Z,10.93
2018-08-06T04:42:21.329Z,11.13
2018-08-06T04:44:49.484Z,10.03
2018-08-06T04:47:17.681Z,10.63
2018-08-06T04:49:45.833Z,11.10
2018-08-06T04:52:14.084Z,10.20
2018-08-06T04:54:42.001Z,10.63
2018-08-06T04:57:10.171Z,10.30
2018-08-06T04:59:38.365Z,9.97
2018-08-06T05:02:06.573Z,9.73
2018-08-06T05:04:34.729Z,9.33
2018-08-06T05:07:03.019Z,9.83
2018-08-06T05:09:36.584Z,10.60
2018-08-06T05:12:04.789Z,10.60
2018-08-06T05:14:32.945Z,10.47
2018-08-06T05:17:01.083Z,10.77
2018-08-06T05:19:29.274Z,11.53
2018-08-06T05:21:57.526Z,11.63
2018-08-06T05:24:25.681Z,11.07
2018-08-06T05:26:53.824Z,10.00
2018-08-06T05:29:21.976Z,9.43
2018-08-06T05:31:50.130Z,10.53
2018-08-06T05:34:18.280Z,10.40
2018-08-06T05:36:46.575Z,10.90
2018-08-06T05:39:14.765Z,9.77
2018-08-06T05:41:43.028Z,10.30
2018-08-06T05:44:11.205Z,10.87
2018-08-06T05:46:39.340Z,9.93
2018-08-06T05:49:07.347Z,10.37
2018-08-06T05:51:35.488Z,10.17
2018-08-06T05:54:03.763Z,10.20
2018-08-06T05:56:31.769Z,9.77
2018-08-06T05:58:59.908Z,10.80
2018-08-06T06:01:27.864Z,9.70
2018-08-06T06:03:56.032Z,10.97
2018-08-06T06:06:24.221Z,10.33
2018-08-06T06:08:52.376Z,9.87
2018-08-06T06:11:20.622Z,11.07
2018-08-06T06:13:48.857Z,10.47
2018-08-06T06:16:17.036Z,11.80
2018-08-06T06:18:44.957Z,11.20
2018-08-06T06:21:13.108Z,9.83
2018-08-06T06:23:41.279Z,11.10
2018-08-06T06:26:09.429Z,11.67
2018-08-06T06:28:37.359Z,10.37
2018-08-06T06:31:05.533Z,12.73
2018-08-06T06:33:33.668Z,12.17
2018-08-06T06:36:01.841Z,12.93
2018-08-06T06:38:29.988Z,11.03
2018-08-06T06:40:58.816Z,13.20
2018-08-06T06:43:26.961Z,12.53
2018-08-06T06:45:54.888Z,11.87
2018-08-06T06:48:23.037Z,12.40
2018-08-06T06:50:51.225Z,12.57
2018-08-06T06:53:19.394Z,12.97
2018-08-06T06:55:47.540Z,12.13
2018-08-06T06:58:15.687Z,12.40
2018-08-06T07:00:43.874Z,12.40
2018-08-06T07:03:11.816Z,12.20
2018-08-06T07:05:40.051Z,13.53
2018-08-06T07:08:08.440Z,11.77
2018-08-06T07:10:36.605Z,12.53
2018-08-06T07:13:04.822Z,12.47
2018-08-06T07:15:32.987Z,12.30
2018-08-06T07:18:01.566Z,12.37
2018-08-06T07:20:29.881Z,11.80
2018-08-06T07:22:57.788Z,12.00
2018-08-06T07:25:26.155Z,12.63
2018-08-06T07:27:54.273Z,12.13
2018-08-06T07:30:22.432Z,11.60
2018-08-06T07:32:50.589Z,11.10
2018-08-06T07:36:42.968Z,12.20
2018-08-06T07:39:11.915Z,11.57
2018-08-06T07:41:40.117Z,11.67
2018-08-06T07:44:08.578Z,11.33
2018-08-06T07:46:37.330Z,11.97
2018-08-06T07:49:05.776Z,11.97
2018-08-06T07:51:33.997Z,13.07
2018-08-06T07:54:02.000Z,12.40
2018-08-06T07:56:30.230Z,11.40
2018-08-06T07:58:58.385Z,12.50
2018-08-06T08:01:26.532Z,12.53
2018-08-06T08:03:54.745Z,12.53
2018-08-06T08:06:22.904Z,13.43
2018-08-06T08:08:51.044Z,12.00
2018-08-06T08:11:19.200Z,11.53
2018-08-06T08:13:47.353Z,11.23
2018-08-06T08:16:15.505Z,11.30
2018-08-06T08:18:43.681Z,11.40
2018-08-06T08:21:11.816Z,11.73
2018-08-06T08:23:39.968Z,11.80
2018-08-06T08:26:07.894Z,10.23
2018-08-06T08:28:36.041Z,11.73
2018-08-06T08:31:04.185Z,11.60
2018-08-06T08:33:32.353Z,11.57
2018-08-06T08:36:00.493Z,11.60
2018-08-06T08:38:28.333Z,10.50
2018-08-06T08:40:56.481Z,10.33
2018-08-06T08:43:24.400Z,12.07
2018-08-06T08:45:52.548Z,10.30
2018-08-06T08:48:20.708Z,11.33
2018-08-06T08:50:48.852Z,11.70
2018-08-06T08:53:17.044Z,11.23
2018-08-06T08:55:45.048Z,12.37
2018-08-06T08:58:13.204Z,12.73
2018-08-06T09:00:41.349Z,10.90
2018-08-06T09:03:09.529Z,10.83
2018-08-06T09:05:37.670Z,10.87
2018-08-06T09:08:05.849Z,11.17
2018-08-06T09:10:33.994Z,10.57
2018-08-06T09:13:02.153Z,11.90
2018-08-06T09:15:30.296Z,10.70
2018-08-06T09:17:58.456Z,11.10
2018-08-06T09:20:26.821Z,9.87
2018-08-06T09:22:54.972Z,10.73
2018-08-06T09:25:23.120Z,10.30
2018-08-06T09:27:51.533Z,11.43
2018-08-06T09:30:20.996Z,10.47
2018-08-06T09:32:52.667Z,10.33
2018-08-06T09:35:21.236Z,9.57
2018-08-06T09:37:49.160Z,9.97
2018-08-06T09:40:18.539Z,9.57
2018-08-06T09:42:47.416Z,10.57
2018-08-06T09:45:16.705Z,9.20
2018-08-06T09:47:45.729Z,9.67
2018-08-06T09:50:14.589Z,9.43
2018-08-06T09:52:43.595Z,9.73
2018-08-06T09:55:12.424Z,8.37
2018-08-06T09:57:41.124Z,8.40
2018-08-06T10:00:19.321Z,8.00
2018-08-06T10:02:48.580Z,8.60
2018-08-06T10:05:16.985Z,7.67
2018-08-06T10:07:45.569Z,7.87
2018-08-06T10:10:14.112Z,7.57
2018-08-06T10:12:43.149Z,8.33
2018-08-06T10:15:12.418Z,6.93
2018-08-06T10:17:40.930Z,9.20
2018-08-06T10:20:12.041Z,7.97
2018-08-06T10:22:40.236Z,8.40
2018-08-06T10:25:10.446Z,9.37
2018-08-06T10:27:38.849Z,8.47
2018-08-06T10:30:10.697Z,8.57
2018-08-06T10:32:38.832Z,8.27
2018-08-06T10:35:08.056Z,8.13
2018-08-06T10:37:37.060Z,7.67
2018-08-06T10:40:06.673Z,8.57
2018-08-06T10:42:34.813Z,8.17
2018-08-06T10:45:02.956Z,8.60
2018-08-06T10:47:31.105Z,7.97
2018-08-06T10:49:59.249Z,8.13
2018-08-06T10:52:27.464Z,8.57
2018-08-06T10:54:55.629Z,7.83
2018-08-06T10:57:23.777Z,7.87
2018-08-06T10:59:51.694Z,7.70
2018-08-06T11:02:19.832Z,8.03
2018-08-06T11:04:47.980Z,8.20
2018-08-06T11:07:16.309Z,8.10
2018-08-06T11:09:44.440Z,7.80
2018-08-06T11:12:12.737Z,6.93
2018-08-06T11:14:40.644Z,9.03
2018-08-06T11:17:08.786Z,8.50
2018-08-06T11:19:36.916Z,7.53
2018-08-06T11:22:05.061Z,8.37
2018-08-06T11:24:33.192Z,7.13
2018-08-06T11:27:01.107Z,7.27
2018-08-06T11:29:29.247Z,7.60
2018-08-06T11:31:57.409Z,7.83
2018-08-06T11:34:25.317Z,7.57
2018-08-06T11:36:53.504Z,8.00
2018-08-06T11:39:21.620Z,7.23
2018-08-06T11:41:49.541Z,7.43
2018-08-06T11:44:17.703Z,7.60
2018-08-06T11:46:45.877Z,7.53
2018-08-06T11:49:14.009Z,7.77
2018-08-06T11:51:42.228Z,7.60
2018-08-06T11:54:10.358Z,7.33
2018-08-06T11:56:38.591Z,6.83
2018-08-06T11:59:06.652Z,6.60
2018-08-06T12:01:34.792Z,6.97
2018-08-06T12:04:02.705Z,6.67
2018-08-06T12:06:30.869Z,6.90
2018-08-06T12:08:59.004Z,7.30
2018-08-06T12:11:26.921Z,6.93
2018-08-06T12:13:55.057Z,7.10
2018-08-06T12:16:23.260Z,7.07
2018-08-06T12:18:51.540Z,7.10
2018-08-06T12:21:19.684Z,7.27
2018-08-06T12:23:47.601Z,7.60
2018-08-06T12:26:15.933Z,6.77
2018-08-06T12:28:43.896Z,7.03
2018-08-06T12:31:11.824Z,7.23
2018-08-06T12:33:40.000Z,7.23
2018-08-06T12:36:08.117Z,8.10
2018-08-06T12:38:46.157Z,6.33
2018-08-06T12:41:14.732Z,7.13
2018-08-06T12:43:42.870Z,6.53
2018-08-06T12:46:11.023Z,6.87
2018-08-06T12:48:39.165Z,5.60
2018-08-06T12:51:07.340Z,6.90
2018-08-06T12:53:35.481Z,6.53
2018-08-06T12:56:03.379Z,6.07
2018-08-06T12:58:31.579Z,6.37
2018-08-06T13:00:59.708Z,6.03
2018-08-06T13:03:28.385Z,7.20
2018-08-06T13:05:56.589Z,6.87
2018-08-06T13:08:24.728Z,6.57
2018-08-06T13:10:52.646Z,5.70
2018-08-06T13:13:20.797Z,6.13
2018-08-06T13:15:48.936Z,6.20
2018-08-06T13:18:17.079Z,6.50
2018-08-06T13:20:45.208Z,9.10
2018-08-06T13:23:13.408Z,7.00
2018-08-06T13:25:41.551Z,6.10
2018-08-06T13:28:14.976Z,5.93
2018-08-06T13:30:43.116Z,5.77
2018-08-06T13:33:11.028Z,5.90
2018-08-06T13:35:39.296Z,6.33
2018-08-06T13:38:07.432Z,6.23
2018-08-06T13:40:35.352Z,6.50
2018-08-06T13:43:03.564Z,5.70
2018-08-06T13:45:31.800Z,5.70
2018-08-06T13:47:59.968Z,5.50
2018-08-06T13:50:28.097Z,5.73
2018-08-06T13:52:56.279Z,5.80
2018-08-06T13:55:24.411Z,6.47
2018-08-06T13:57:52.564Z,6.30
2018-08-06T14:00:20.705Z,6.87
2018-08-06T14:02:48.620Z,6.37
2018-08-06T14:05:17.682Z,5.93
2018-08-06T14:07:46.595Z,5.73
2018-08-06T14:10:15.045Z,6.00
2018-08-06T14:12:42.960Z,5.83
2018-08-06T14:15:11.913Z,5.73
2018-08-06T14:17:40.509Z,5.87
2018-08-06T14:20:10.157Z,5.63
2018-08-06T14:22:38.689Z,6.27
2018-08-06T14:25:07.492Z,5.90
2018-08-06T14:27:35.647Z,6.13
2018-08-06T14:30:04.557Z,5.60
2018-08-06T14:32:32.705Z,5.50
2018-08-06T14:35:00.920Z,5.90
2018-08-06T14:37:29.095Z,5.37
2018-08-06T14:39:57.228Z,5.50
2018-08-06T14:42:25.446Z,5.83
2018-08-06T14:44:53.589Z,5.53
2018-08-06T14:47:21.509Z,5.60
2018-08-06T14:49:49.666Z,5.70
2018-08-06T14:52:17.808Z,5.90
2018-08-06T14:54:45.724Z,6.13
2018-08-06T14:57:13.884Z,5.87
2018-08-06T14:59:42.057Z,6.00
2018-08-06T15:02:10.197Z,5.87
2018-08-06T15:04:38.197Z,6.33
2018-08-06T15:07:06.375Z,5.93
2018-08-06T15:09:34.517Z,6.07
2018-08-06T15:12:02.460Z,5.70
2018-08-06T15:14:30.584Z,6.00
2018-08-06T15:16:58.748Z,6.00
2018-08-06T15:19:26.872Z,5.70
2018-08-06T15:21:55.121Z,5.80
2018-08-06T15:24:23.264Z,6.10
2018-08-06T15:26:51.413Z,5.80
2018-08-06T15:29:19.643Z,5.60
2018-08-06T15:31:47.806Z,5.70
2018-08-06T15:34:15.949Z,5.53
2018-08-06T15:36:44.076Z,5.60
2018-08-06T15:39:14.597Z,5.23
2018-08-06T15:41:43.656Z,5.73
2018-08-06T15:44:11.664Z,5.50
2018-08-06T15:46:39.850Z,5.77
2018-08-06T15:49:07.725Z,5.40
2018-08-06T15:51:35.870Z,5.90
2018-08-06T15:54:04.000Z,5.73
2018-08-06T15:56:32.230Z,5.97
2018-08-06T15:59:00.371Z,5.47
2018-08-06T16:01:28.285Z,6.37
2018-08-06T16:03:57.272Z,5.53
2018-08-06T16:06:25.380Z,5.07
2018-08-06T16:08:53.524Z,5.83
2018-08-06T16:11:21.688Z,5.13
2018-08-06T16:13:49.821Z,5.37
2018-08-06T16:16:17.756Z,5.73
2018-08-06T16:18:45.899Z,5.70
2018-08-06T16:21:14.049Z,5.50
2018-08-06T16:23:42.189Z,5.50
2018-08-06T16:26:10.333Z,5.60
2018-08-06T16:28:38.477Z,4.80
2018-08-06T16:31:06.427Z,5.50
2018-08-06T16:33:34.528Z,5.00
2018-08-06T16:36:02.673Z,5.40
2018-08-06T16:38:30.814Z,5.13
2018-08-06T16:40:58.962Z,5.17
2018-08-06T16:43:27.109Z,4.90
2018-08-06T16:45:55.028Z,4.80
2018-08-06T16:48:23.288Z,5.63
2018-08-06T16:50:51.433Z,5.37
2018-08-06T16:53:19.336Z,5.50
2018-08-06T16:55:47.488Z,5.40
2018-08-06T16:58:15.645Z,5.53
2018-08-06T17:00:43.784Z,5.43
2018-08-06T17:03:11.948Z,5.20
2018-08-06T17:05:40.114Z,4.93
2018-08-06T17:08:08.252Z,5.60
2018-08-06T17:10:36.413Z,4.93
2018-08-06T17:13:04.319Z,5.30
2018-08-06T17:15:32.468Z,5.03
2018-08-06T17:18:00.447Z,5.40
2018-08-06T17:20:28.372Z,5.10
2018-08-06T17:22:56.610Z,5.50
2018-08-06T17:25:24.749Z,5.70
2018-08-06T17:27:52.655Z,5.57
2018-08-06T17:30:20.827Z,5.20
2018-08-06T17:32:48.960Z,5.23
2018-08-06T17:35:17.351Z,5.67
2018-08-06T17:37:45.252Z,4.80
2018-08-06T17:40:15.546Z,4.53
2018-08-06T17:42:43.554Z,5.07
2018-08-06T17:45:15.164Z,5.23
2018-08-06T17:47:43.081Z,6.00
2018-08-06T17:50:13.588Z,5.30
2018-08-06T17:52:41.784Z,4.90
2018-08-06T17:55:10.030Z,5.70
2018-08-06T17:57:37.952Z,5.53
2018-08-06T18:00:06.665Z,5.27
2018-08-06T18:02:34.985Z,5.37
2018-08-06T18:05:03.072Z,5.80
2018-08-06T18:07:31.245Z,5.07
2018-08-06T18:09:59.397Z,5.30
2018-08-06T18:12:27.544Z,5.30
2018-08-06T18:14:55.984Z,4.93
2018-08-06T18:17:24.133Z,4.70
2018-08-06T18:19:52.287Z,5.50
2018-08-06T18:22:20.283Z,5.70
2018-08-06T18:24:48.424Z,5.20
2018-08-06T18:27:16.429Z,5.90
2018-08-06T18:29:44.569Z,5.40
2018-08-06T18:32:12.476Z,5.10
2018-08-06T18:34:40.624Z,5.50
2018-08-06T18:37:08.548Z,4.90
2018-08-06T18:39:36.692Z,5.00
2018-08-06T18:42:04.851Z,5.27
2018-08-06T18:44:32.997Z,4.87
2018-08-06T18:47:01.137Z,4.97
2018-08-06T18:49:29.297Z,5.60
2018-08-06T18:51:57.500Z,5.70
2018-08-06T18:54:25.605Z,6.07
2018-08-06T18:56:53.749Z,5.90
2018-08-06T18:59:21.888Z,6.23
2018-08-06T19:01:50.050Z,7.13
2018-08-06T19:04:18.205Z,6.60
2018-08-06T19:06:46.117Z,6.37
2018-08-06T19:09:18.378Z,6.43
2018-08-06T19:11:47.126Z,7.97
2018-08-06T19:14:19.948Z,6.83
2018-08-06T19:16:50.372Z,6.50
2018-08-06T19:19:24.561Z,7.80
2018-08-06T19:21:53.984Z,7.90
2018-08-06T19:24:27.576Z,7.87
2018-08-06T19:26:56.653Z,7.23
2018-08-06T19:29:24.861Z,9.53
2018-08-06T19:31:53.249Z,9.87
2018-08-06T19:34:21.624Z,8.67
2018-08-06T19:36:55.341Z,11.70
2018-08-06T19:39:23.612Z,13.03
2018-08-06T19:41:51.961Z,16.53
2018-08-06T19:44:20.121Z,26.40
2018-08-06T19:46:48.338Z,12.03
2018-08-06T19:49:22.029Z,13.63
2018-08-06T19:51:50.169Z,19.30
2018-08-06T19:54:18.325Z,15.57
2018-08-06T19:56:46.464Z,12.53
2018-08-06T19:59:14.753Z,16.03
2018-08-06T20:01:42.896Z,12.10
2018-08-06T20:04:11.067Z,14.03
2018-08-06T20:06:39.060Z,12.23
2018-08-06T20:09:09.461Z,10.03
2018-08-06T20:11:37.837Z,10.07
2018-08-06T20:14:05.753Z,19.00
2018-08-06T20:16:33.909Z,7.07
2018-08-06T20:19:02.061Z,10.10
2018-08-06T20:21:30.200Z,12.97
2018-08-06T20:23:58.383Z,24.37
2018-08-06T20:26:26.565Z,9.30
2018-08-06T20:28:54.710Z,7.93
2018-08-06T20:31:22.848Z,18.50
2018-08-06T20:33:50.998Z,22.60
2018-08-06T20:36:18.920Z,9.07
2018-08-06T20:38:47.061Z,18.50
2018-08-06T20:41:15.260Z,11.90
2018-08-06T20:43:43.412Z,12.97
2018-08-06T20:46:11.574Z,13.13
2018-08-06T20:48:39.535Z,19.57
2018-08-06T20:51:07.944Z,12.93
2018-08-06T20:53:36.149Z,13.87
2018-08-06T20:56:04.401Z,25.17
2018-08-06T20:58:32.557Z,10.33
2018-08-06T21:01:00.721Z,13.32
2018-08-06T21:03:28.669Z,11.17
2018-08-06T21:05:56.853Z,8.93
2018-08-06T21:08:25.005Z,11.23
2018-08-06T21:10:53.162Z,9.33
2018-08-06T21:13:21.309Z,9.20
2018-08-06T21:15:49.569Z,11.90
2018-08-06T21:18:17.491Z,13.20
2018-08-06T21:20:45.642Z,15.20
2018-08-06T21:23:13.801Z,9.60
2018-08-06T21:25:41.961Z,14.53
2018-08-06T21:28:09.891Z,13.30
2018-08-06T21:30:38.052Z,15.40
2018-08-06T21:33:06.197Z,15.83
2018-08-06T21:35:35.006Z,12.77
2018-08-06T21:38:03.144Z,9.30
2018-08-06T21:40:31.085Z,11.10
2018-08-06T21:43:00.252Z,12.17
2018-08-06T21:45:28.413Z,13.83
2018-08-06T21:47:56.560Z,20.00
2018-08-06T21:50:24.497Z,14.23
2018-08-06T21:52:52.633Z,9.83
2018-08-06T21:55:21.646Z,18.80
2018-08-06T21:57:49.798Z,9.33
2018-08-06T22:00:31.365Z,12.97
2018-08-06T22:02:59.524Z,10.90
2018-08-06T22:05:27.884Z,21.93
2018-08-06T22:07:56.041Z,15.97
2018-08-06T22:10:24.199Z,9.97
2018-08-06T22:12:52.437Z,10.40
2018-08-06T22:15:20.432Z,11.20
2018-08-06T22:17:48.613Z,13.57
2018-08-06T22:20:17.006Z,25.47
2018-08-06T22:22:45.269Z,16.13
2018-08-06T22:25:13.414Z,20.70
2018-08-06T22:27:41.333Z,18.03
2018-08-06T22:30:10.380Z,14.00
2018-08-06T22:32:38.469Z,7.97
2018-08-06T22:35:08.112Z,7.07
2018-08-06T22:37:36.283Z,8.40
2018-08-06T22:40:05.730Z,6.70
2018-08-06T22:42:33.848Z,12.70
2018-08-06T22:45:01.994Z,7.70
2018-08-06T22:47:30.296Z,10.07
2018-08-06T22:49:58.472Z,8.33
2018-08-06T22:52:26.615Z,9.17
2018-08-06T22:54:54.532Z,9.47
2018-08-06T22:57:22.893Z,7.03
2018-08-06T22:59:51.041Z,7.30
2018-08-06T23:02:18.976Z,6.47
2018-08-06T23:04:47.128Z,9.80
2018-08-06T23:07:15.268Z,8.37
2018-08-06T23:09:43.416Z,7.57
2018-08-06T23:12:11.563Z,8.23
2018-08-06T23:14:39.730Z,6.67
2018-08-06T23:17:07.889Z,6.27
2018-08-06T23:19:36.059Z,7.43
2018-08-06T23:22:04.205Z,8.03
2018-08-06T23:24:32.204Z,6.77
2018-08-06T23:27:00.381Z,8.90
2018-08-06T23:29:28.525Z,9.43
2018-08-06T23:31:56.432Z,9.03
2018-08-06T23:34:24.596Z,8.20
2018-08-06T23:36:52.733Z,6.90
2018-08-06T23:39:20.666Z,6.43
2018-08-06T23:41:48.800Z,8.43
2018-08-06T23:44:16.995Z,7.97
2018-08-06T23:46:45.137Z,6.97
2018-08-06T23:49:13.057Z,7.50
2018-08-06T23:51:41.195Z,6.97
2018-08-06T23:54:09.557Z,7.10
2018-08-06T23:56:37.496Z,7.37
2018-08-06T23:59:05.836Z,6.77
